Madeira Beach, Florida
Current Conditions -  °F | °C
As of 1:53 AM on Friday 19 Dec 2014 (Local Time) from KSPG Reporting Station
Clear Clear  
Wind Chill: 57°   Ceiling: Unl
Heat Index: 57°   Visibility: 10mi
Dew Point: 53°   Wind: 5mph
Humidity: 87%   Direction: 20°NNE
Pressure: 30.11"   Gusts: NA
Location:  27.7976°N, 82.7976°W
Report Text: KSPG 190653Z AUTO 02004KT 10SM CLR 14/12 A3011 RMK AO2 SLP194 T01390117
Loading
Personal Weather Stations






























Interactive Weather Map New forecast layout! Learn more

10-Day Weather Forecast

Advertisements
Track Severe Weather on mobile